sensor_id;sensor_type;location;lat;lon;timestamp;P1;durP1;ratioP1;P2;durP2;ratioP2
43297;SDS011;28892;55.640;37.532;2023-05-07T00:00:28;6.87;;;4.60;;
43297;SDS011;28892;55.640;37.532;2023-05-07T00:02:54;6.93;;;4.50;;
43297;SDS011;28892;55.640;37.532;2023-05-07T00:05:20;6.13;;;4.63;;
43297;SDS011;28892;55.640;37.532;2023-05-07T00:07:48;6.77;;;4.70;;
43297;SDS011;28892;55.640;37.532;2023-05-07T00:10:14;6.73;;;4.50;;
43297;SDS011;28892;55.640;37.532;2023-05-07T00:12:40;7.87;;;4.80;;
43297;SDS011;28892;55.640;37.532;2023-05-07T00:15:09;8.70;;;4.57;;
43297;SDS011;28892;55.640;37.532;2023-05-07T00:17:37;6.97;;;4.90;;
43297;SDS011;28892;55.640;37.532;2023-05-07T00:20:06;7.17;;;5.10;;
43297;SDS011;28892;55.640;37.532;2023-05-07T00:22:37;6.83;;;4.80;;
43297;SDS011;28892;55.640;37.532;2023-05-07T00:25:16;6.67;;;4.53;;
43297;SDS011;28892;55.640;37.532;2023-05-07T00:27:46;7.17;;;4.50;;
43297;SDS011;28892;55.640;37.532;2023-05-07T00:30:12;6.67;;;4.37;;
43297;SDS011;28892;55.640;37.532;2023-05-07T00:32:38;5.63;;;4.40;;
43297;SDS011;28892;55.640;37.532;2023-05-07T00:35:04;7.27;;;4.60;;
43297;SDS011;28892;55.640;37.532;2023-05-07T00:37:31;7.13;;;4.27;;
43297;SDS011;28892;55.640;37.532;2023-05-07T00:39:57;9.43;;;4.57;;
43297;SDS011;28892;55.640;37.532;2023-05-07T00:42:23;7.57;;;4.50;;
43297;SDS011;28892;55.640;37.532;2023-05-07T00:44:49;6.30;;;4.77;;
43297;SDS011;28892;55.640;37.532;2023-05-07T00:47:15;4.60;;;3.93;;
43297;SDS011;28892;55.640;37.532;2023-05-07T00:49:42;5.90;;;4.57;;
43297;SDS011;28892;55.640;37.532;2023-05-07T00:52:11;6.03;;;4.37;;
43297;SDS011;28892;55.640;37.532;2023-05-07T00:54:40;6.37;;;4.83;;
43297;SDS011;28892;55.640;37.532;2023-05-07T00:57:06;6.27;;;4.37;;
43297;SDS011;28892;55.640;37.532;2023-05-07T00:59:34;5.50;;;4.80;;
43297;SDS011;28892;55.640;37.532;2023-05-07T01:02:01;12.17;;;4.90;;
43297;SDS011;28892;55.640;37.532;2023-05-07T01:04:27;9.53;;;5.13;;
43297;SDS011;28892;55.640;37.532;2023-05-07T01:06:54;6.57;;;4.90;;
43297;SDS011;28892;55.640;37.532;2023-05-07T01:09:25;5.83;;;4.60;;
43297;SDS011;28892;55.640;37.532;2023-05-07T01:11:53;8.87;;;5.00;;
43297;SDS011;28892;55.640;37.532;2023-05-07T01:14:21;5.87;;;4.50;;
43297;SDS011;28892;55.640;37.532;2023-05-07T01:16:47;8.53;;;4.73;;
43297;SDS011;28892;55.640;37.532;2023-05-07T01:19:17;10.90;;;4.50;;
43297;SDS011;28892;55.640;37.532;2023-05-07T01:21:46;6.30;;;4.63;;
43297;SDS011;28892;55.640;37.532;2023-05-07T01:24:15;5.27;;;4.43;;
43297;SDS011;28892;55.640;37.532;2023-05-07T01:26:42;5.90;;;4.30;;
43297;SDS011;28892;55.640;37.532;2023-05-07T01:29:12;5.63;;;4.50;;
43297;SDS011;28892;55.640;37.532;2023-05-07T01:31:38;8.37;;;4.30;;
43297;SDS011;28892;55.640;37.532;2023-05-07T01:34:08;6.17;;;4.63;;
43297;SDS011;28892;55.640;37.532;2023-05-07T01:36:37;9.13;;;4.30;;
43297;SDS011;28892;55.640;37.532;2023-05-07T01:39:06;6.37;;;4.37;;
43297;SDS011;28892;55.640;37.532;2023-05-07T01:41:33;7.83;;;4.50;;
43297;SDS011;28892;55.640;37.532;2023-05-07T01:43:59;4.97;;;4.27;;
43297;SDS011;28892;55.640;37.532;2023-05-07T01:46:27;5.77;;;4.27;;
43297;SDS011;28892;55.640;37.532;2023-05-07T01:48:53;6.37;;;4.80;;
43297;SDS011;28892;55.640;37.532;2023-05-07T01:51:19;6.10;;;4.67;;
43297;SDS011;28892;55.640;37.532;2023-05-07T01:53:47;6.17;;;4.73;;
43297;SDS011;28892;55.640;37.532;2023-05-07T01:56:17;7.17;;;4.90;;
43297;SDS011;28892;55.640;37.532;2023-05-07T01:58:46;5.77;;;5.10;;
43297;SDS011;28892;55.640;37.532;2023-05-07T02:01:12;8.13;;;5.40;;
43297;SDS011;28892;55.640;37.532;2023-05-07T02:03:43;7.87;;;4.43;;
43297;SDS011;28892;55.640;37.532;2023-05-07T02:06:17;8.17;;;4.83;;
43297;SDS011;28892;55.640;37.532;2023-05-07T02:08:43;9.77;;;5.40;;
43297;SDS011;28892;55.640;37.532;2023-05-07T02:11:10;9.70;;;4.97;;
43297;SDS011;28892;55.640;37.532;2023-05-07T02:13:36;5.43;;;4.27;;
43297;SDS011;28892;55.640;37.532;2023-05-07T02:16:05;7.40;;;4.07;;
43297;SDS011;28892;55.640;37.532;2023-05-07T02:18:31;5.90;;;4.27;;
43297;SDS011;28892;55.640;37.532;2023-05-07T02:20:58;4.47;;;3.90;;
43297;SDS011;28892;55.640;37.532;2023-05-07T02:23:24;6.30;;;4.20;;
43297;SDS011;28892;55.640;37.532;2023-05-07T02:25:51;7.10;;;3.80;;
43297;SDS011;28892;55.640;37.532;2023-05-07T02:28:17;5.70;;;3.70;;
43297;SDS011;28892;55.640;37.532;2023-05-07T02:30:49;4.77;;;3.13;;
43297;SDS011;28892;55.640;37.532;2023-05-07T02:33:16;5.80;;;4.00;;
43297;SDS011;28892;55.640;37.532;2023-05-07T02:35:42;6.30;;;4.27;;
43297;SDS011;28892;55.640;37.532;2023-05-07T02:38:09;6.03;;;3.70;;
43297;SDS011;28892;55.640;37.532;2023-05-07T02:40:39;5.90;;;4.30;;
43297;SDS011;28892;55.640;37.532;2023-05-07T02:43:05;5.80;;;4.93;;
43297;SDS011;28892;55.640;37.532;2023-05-07T02:45:34;4.80;;;4.10;;
43297;SDS011;28892;55.640;37.532;2023-05-07T02:48:13;7.50;;;4.20;;
43297;SDS011;28892;55.640;37.532;2023-05-07T02:50:46;6.53;;;4.83;;
43297;SDS011;28892;55.640;37.532;2023-05-07T02:53:15;5.87;;;4.53;;
43297;SDS011;28892;55.640;37.532;2023-05-07T02:55:43;5.10;;;4.20;;
43297;SDS011;28892;55.640;37.532;2023-05-07T02:58:14;5.27;;;4.27;;
43297;SDS011;28892;55.640;37.532;2023-05-07T03:00:41;7.60;;;4.50;;
43297;SDS011;28892;55.640;37.532;2023-05-07T03:03:20;5.50;;;4.57;;
43297;SDS011;28892;55.640;37.532;2023-05-07T03:05:49;5.33;;;4.37;;
43297;SDS011;28892;55.640;37.532;2023-05-07T03:08:17;5.93;;;4.33;;
43297;SDS011;28892;55.640;37.532;2023-05-07T03:10:46;7.63;;;4.67;;
43297;SDS011;28892;55.640;37.532;2023-05-07T03:13:12;4.60;;;4.17;;
43297;SDS011;28892;55.640;37.532;2023-05-07T03:15:38;6.90;;;4.97;;
43297;SDS011;28892;55.640;37.532;2023-05-07T03:18:07;6.23;;;4.53;;
43297;SDS011;28892;55.640;37.532;2023-05-07T03:20:54;4.97;;;3.87;;
43297;SDS011;28892;55.640;37.532;2023-05-07T03:23:20;7.03;;;4.40;;
43297;SDS011;28892;55.640;37.532;2023-05-07T03:25:55;6.50;;;4.47;;
43297;SDS011;28892;55.640;37.532;2023-05-07T03:28:36;5.10;;;4.10;;
43297;SDS011;28892;55.640;37.532;2023-05-07T03:31:11;5.10;;;3.77;;
43297;SDS011;28892;55.640;37.532;2023-05-07T03:34:00;5.75;;;3.83;;
43297;SDS011;28892;55.640;37.532;2023-05-07T03:36:26;7.47;;;3.80;;
43297;SDS011;28892;55.640;37.532;2023-05-07T03:38:55;5.37;;;3.63;;
43297;SDS011;28892;55.640;37.532;2023-05-07T03:41:24;7.07;;;3.90;;
43297;SDS011;28892;55.640;37.532;2023-05-07T03:43:51;6.37;;;4.17;;
43297;SDS011;28892;55.640;37.532;2023-05-07T03:46:17;4.07;;;3.60;;
43297;SDS011;28892;55.640;37.532;2023-05-07T03:48:43;7.77;;;3.80;;
43297;SDS011;28892;55.640;37.532;2023-05-07T03:51:12;4.20;;;3.33;;
43297;SDS011;28892;55.640;37.532;2023-05-07T03:53:38;6.30;;;3.60;;
43297;SDS011;28892;55.640;37.532;2023-05-07T03:56:03;5.80;;;4.17;;
43297;SDS011;28892;55.640;37.532;2023-05-07T03:58:34;5.37;;;3.40;;
43297;SDS011;28892;55.640;37.532;2023-05-07T04:01:07;5.77;;;3.70;;
43297;SDS011;28892;55.640;37.532;2023-05-07T04:03:34;5.27;;;3.70;;
43297;SDS011;28892;55.640;37.532;2023-05-07T04:06:00;4.10;;;3.50;;
43297;SDS011;28892;55.640;37.532;2023-05-07T04:08:26;4.77;;;3.90;;
43297;SDS011;28892;55.640;37.532;2023-05-07T04:10:54;5.50;;;3.40;;
43297;SDS011;28892;55.640;37.532;2023-05-07T04:13:26;5.32;;;3.50;;
43297;SDS011;28892;55.640;37.532;2023-05-07T04:15:53;4.73;;;3.60;;
43297;SDS011;28892;55.640;37.532;2023-05-07T04:18:20;5.43;;;3.37;;
43297;SDS011;28892;55.640;37.532;2023-05-07T04:20:48;5.47;;;3.70;;
43297;SDS011;28892;55.640;37.532;2023-05-07T04:23:17;3.83;;;2.80;;
43297;SDS011;28892;55.640;37.532;2023-05-07T04:25:44;4.13;;;3.10;;
43297;SDS011;28892;55.640;37.532;2023-05-07T04:28:24;3.40;;;3.03;;
43297;SDS011;28892;55.640;37.532;2023-05-07T04:30:50;6.07;;;3.40;;
43297;SDS011;28892;55.640;37.532;2023-05-07T04:33:22;3.33;;;2.93;;
43297;SDS011;28892;55.640;37.532;2023-05-07T04:35:49;3.17;;;2.87;;
43297;SDS011;28892;55.640;37.532;2023-05-07T04:38:15;3.50;;;2.87;;
43297;SDS011;28892;55.640;37.532;2023-05-07T04:40:42;4.93;;;3.13;;
43297;SDS011;28892;55.640;37.532;2023-05-07T04:43:12;4.20;;;2.75;;
43297;SDS011;28892;55.640;37.532;2023-05-07T04:45:44;5.88;;;3.33;;
43297;SDS011;28892;55.640;37.532;2023-05-07T04:48:10;4.63;;;4.07;;
43297;SDS011;28892;55.640;37.532;2023-05-07T04:50:39;6.97;;;3.75;;
43297;SDS011;28892;55.640;37.532;2023-05-07T04:53:06;3.90;;;3.55;;
43297;SDS011;28892;55.640;37.532;2023-05-07T04:55:32;4.18;;;3.50;;
43297;SDS011;28892;55.640;37.532;2023-05-07T04:57:58;3.40;;;3.10;;
43297;SDS011;28892;55.640;37.532;2023-05-07T05:00:26;4.22;;;3.08;;
43297;SDS011;28892;55.640;37.532;2023-05-07T05:02:54;4.50;;;3.35;;
43297;SDS011;28892;55.640;37.532;2023-05-07T05:05:21;7.05;;;3.70;;
43297;SDS011;28892;55.640;37.532;2023-05-07T05:07:53;4.93;;;3.50;;
43297;SDS011;28892;55.640;37.532;2023-05-07T05:10:19;5.68;;;3.20;;
43297;SDS011;28892;55.640;37.532;2023-05-07T05:12:48;4.05;;;3.30;;
43297;SDS011;28892;55.640;37.532;2023-05-07T05:15:17;4.15;;;3.25;;
43297;SDS011;28892;55.640;37.532;2023-05-07T05:17:43;3.95;;;2.70;;
43297;SDS011;28892;55.640;37.532;2023-05-07T05:20:10;5.30;;;3.47;;
43297;SDS011;28892;55.640;37.532;2023-05-07T05:22:38;5.18;;;2.90;;
43297;SDS011;28892;55.640;37.532;2023-05-07T05:25:05;5.47;;;2.58;;
43297;SDS011;28892;55.640;37.532;2023-05-07T05:27:31;5.20;;;2.28;;
43297;SDS011;28892;55.640;37.532;2023-05-07T05:30:03;4.70;;;2.50;;
43297;SDS011;28892;55.640;37.532;2023-05-07T05:32:31;3.08;;;2.75;;
43297;SDS011;28892;55.640;37.532;2023-05-07T05:34:57;5.13;;;2.50;;
43297;SDS011;28892;55.640;37.532;2023-05-07T05:37:23;2.90;;;2.60;;
43297;SDS011;28892;55.640;37.532;2023-05-07T05:39:56;4.55;;;2.30;;
43297;SDS011;28892;55.640;37.532;2023-05-07T05:42:31;3.38;;;2.03;;
43297;SDS011;28892;55.640;37.532;2023-05-07T05:44:57;4.00;;;2.20;;
43297;SDS011;28892;55.640;37.532;2023-05-07T05:47:24;6.00;;;2.20;;
43297;SDS011;28892;55.640;37.532;2023-05-07T05:49:53;2.53;;;2.25;;
43297;SDS011;28892;55.640;37.532;2023-05-07T05:52:22;3.10;;;2.13;;
43297;SDS011;28892;55.640;37.532;2023-05-07T05:54:50;6.78;;;2.20;;
43297;SDS011;28892;55.640;37.532;2023-05-07T05:57:16;3.65;;;2.50;;
43297;SDS011;28892;55.640;37.532;2023-05-07T05:59:44;5.82;;;2.38;;
43297;SDS011;28892;55.640;37.532;2023-05-07T06:02:10;2.53;;;1.70;;
43297;SDS011;28892;55.640;37.532;2023-05-07T06:04:37;2.20;;;1.88;;
43297;SDS011;28892;55.640;37.532;2023-05-07T06:07:04;3.53;;;1.95;;
43297;SDS011;28892;55.640;37.532;2023-05-07T06:09:33;6.22;;;2.17;;
43297;SDS011;28892;55.640;37.532;2023-05-07T06:12:00;3.00;;;2.45;;
43297;SDS011;28892;55.640;37.532;2023-05-07T06:14:26;3.25;;;1.80;;
43297;SDS011;28892;55.640;37.532;2023-05-07T06:16:54;4.50;;;2.45;;
43297;SDS011;28892;55.640;37.532;2023-05-07T06:19:20;2.78;;;1.88;;
43297;SDS011;28892;55.640;37.532;2023-05-07T06:21:52;1.98;;;1.80;;
43297;SDS011;28892;55.640;37.532;2023-05-07T06:24:21;2.17;;;1.98;;
43297;SDS011;28892;55.640;37.532;2023-05-07T06:26:50;3.22;;;1.95;;
43297;SDS011;28892;55.640;37.532;2023-05-07T06:29:19;2.78;;;1.90;;
43297;SDS011;28892;55.640;37.532;2023-05-07T06:31:52;3.13;;;2.35;;
43297;SDS011;28892;55.640;37.532;2023-05-07T06:34:21;2.38;;;2.00;;
43297;SDS011;28892;55.640;37.532;2023-05-07T06:36:50;2.95;;;2.20;;
43297;SDS011;28892;55.640;37.532;2023-05-07T06:39:35;2.83;;;2.08;;
43297;SDS011;28892;55.640;37.532;2023-05-07T06:42:01;3.20;;;2.10;;
43297;SDS011;28892;55.640;37.532;2023-05-07T06:44:31;3.05;;;2.05;;
43297;SDS011;28892;55.640;37.532;2023-05-07T06:47:06;2.85;;;1.90;;
43297;SDS011;28892;55.640;37.532;2023-05-07T06:49:40;3.53;;;1.77;;
43297;SDS011;28892;55.640;37.532;2023-05-07T06:52:11;3.58;;;1.92;;
43297;SDS011;28892;55.640;37.532;2023-05-07T06:54:46;5.30;;;2.00;;
43297;SDS011;28892;55.640;37.532;2023-05-07T07:00:30;3.67;;;1.95;;
43297;SDS011;28892;55.640;37.532;2023-05-07T07:03:06;3.28;;;2.13;;
43297;SDS011;28892;55.640;37.532;2023-05-07T07:05:34;2.50;;;1.60;;
43297;SDS011;28892;55.640;37.532;2023-05-07T07:11:01;5.85;;;2.13;;
43297;SDS011;28892;55.640;37.532;2023-05-07T07:13:37;3.45;;;1.73;;
43297;SDS011;28892;55.640;37.532;2023-05-07T07:16:14;2.65;;;1.95;;
43297;SDS011;28892;55.640;37.532;2023-05-07T07:21:35;4.13;;;1.70;;
43297;SDS011;28892;55.640;37.532;2023-05-07T07:24:00;4.65;;;2.08;;
43297;SDS011;28892;55.640;37.532;2023-05-07T07:26:29;4.68;;;2.00;;
43297;SDS011;28892;55.640;37.532;2023-05-07T07:42:52;2.40;;;1.70;;
43297;SDS011;28892;55.640;37.532;2023-05-07T07:45:25;3.35;;;1.98;;
43297;SDS011;28892;55.640;37.532;2023-05-07T07:47:52;2.80;;;1.60;;
43297;SDS011;28892;55.640;37.532;2023-05-07T07:50:23;5.35;;;1.75;;
43297;SDS011;28892;55.640;37.532;2023-05-07T07:52:49;2.10;;;1.63;;
43297;SDS011;28892;55.640;37.532;2023-05-07T07:55:25;6.32;;;2.17;;
43297;SDS011;28892;55.640;37.532;2023-05-07T07:58:19;6.38;;;1.55;;
43297;SDS011;28892;55.640;37.532;2023-05-07T08:00:50;2.40;;;1.58;;
43297;SDS011;28892;55.640;37.532;2023-05-07T08:03:29;5.00;;;1.58;;
43297;SDS011;28892;55.640;37.532;2023-05-07T08:06:06;2.92;;;1.70;;
43297;SDS011;28892;55.640;37.532;2023-05-07T08:08:53;3.55;;;1.80;;
43297;SDS011;28892;55.640;37.532;2023-05-07T08:11:27;4.00;;;1.70;;
43297;SDS011;28892;55.640;37.532;2023-05-07T08:14:11;2.53;;;1.77;;
43297;SDS011;28892;55.640;37.532;2023-05-07T08:16:43;3.20;;;1.70;;
43297;SDS011;28892;55.640;37.532;2023-05-07T08:19:18;4.55;;;1.80;;
43297;SDS011;28892;55.640;37.532;2023-05-07T08:21:51;2.75;;;1.90;;
43297;SDS011;28892;55.640;37.532;2023-05-07T08:24:30;3.83;;;1.90;;
43297;SDS011;28892;55.640;37.532;2023-05-07T08:26:56;4.50;;;1.63;;
43297;SDS011;28892;55.640;37.532;2023-05-07T08:29:22;1.58;;;1.48;;
43297;SDS011;28892;55.640;37.532;2023-05-07T08:31:50;2.13;;;1.77;;
43297;SDS011;28892;55.640;37.532;2023-05-07T08:34:24;3.47;;;1.88;;
43297;SDS011;28892;55.640;37.532;2023-05-07T08:37:02;2.97;;;1.55;;
43297;SDS011;28892;55.640;37.532;2023-05-07T08:39:29;1.77;;;1.60;;
43297;SDS011;28892;55.640;37.532;2023-05-07T08:41:55;3.10;;;2.08;;
43297;SDS011;28892;55.640;37.532;2023-05-07T08:44:26;4.07;;;1.65;;
43297;SDS011;28892;55.640;37.532;2023-05-07T08:46:53;4.50;;;2.05;;
43297;SDS011;28892;55.640;37.532;2023-05-07T08:52:17;3.65;;;1.52;;
43297;SDS011;28892;55.640;37.532;2023-05-07T08:54:53;2.67;;;1.50;;
43297;SDS011;28892;55.640;37.532;2023-05-07T08:57:19;1.80;;;1.40;;
43297;SDS011;28892;55.640;37.532;2023-05-07T08:59:48;3.28;;;1.60;;
43297;SDS011;28892;55.640;37.532;2023-05-07T09:02:14;2.72;;;1.48;;
43297;SDS011;28892;55.640;37.532;2023-05-07T09:04:44;1.73;;;1.50;;
43297;SDS011;28892;55.640;37.532;2023-05-07T09:10:16;3.13;;;2.08;;
43297;SDS011;28892;55.640;37.532;2023-05-07T09:12:49;5.13;;;2.15;;
43297;SDS011;28892;55.640;37.532;2023-05-07T09:15:23;3.17;;;2.00;;
43297;SDS011;28892;55.640;37.532;2023-05-07T09:18:24;2.58;;;1.80;;
43297;SDS011;28892;55.640;37.532;2023-05-07T09:20:51;2.13;;;1.40;;
43297;SDS011;28892;55.640;37.532;2023-05-07T09:23:19;6.93;;;3.03;;
43297;SDS011;28892;55.640;37.532;2023-05-07T09:25:49;4.72;;;4.18;;
43297;SDS011;28892;55.640;37.532;2023-05-07T09:28:44;4.05;;;2.10;;
43297;SDS011;28892;55.640;37.532;2023-05-07T09:31:24;13.20;;;11.85;;
43297;SDS011;28892;55.640;37.532;2023-05-07T09:39:04;8.25;;;7.25;;
43297;SDS011;28892;55.640;37.532;2023-05-07T09:41:58;3.90;;;2.70;;
43297;SDS011;28892;55.640;37.532;2023-05-07T09:44:48;4.05;;;3.47;;
43297;SDS011;28892;55.640;37.532;2023-05-07T09:47:35;2.40;;;1.95;;
43297;SDS011;28892;55.640;37.532;2023-05-07T09:50:44;3.83;;;2.80;;
43297;SDS011;28892;55.640;37.532;2023-05-07T09:53:38;5.45;;;4.22;;
43297;SDS011;28892;55.640;37.532;2023-05-07T09:59:58;5.18;;;2.60;;
43297;SDS011;28892;55.640;37.532;2023-05-07T10:03:11;2.70;;;1.75;;
43297;SDS011;28892;55.640;37.532;2023-05-07T10:06:11;3.58;;;2.00;;
43297;SDS011;28892;55.640;37.532;2023-05-07T10:09:35;4.20;;;2.53;;
43297;SDS011;28892;55.640;37.532;2023-05-07T10:12:17;3.97;;;3.20;;
43297;SDS011;28892;55.640;37.532;2023-05-07T10:14:50;2.20;;;1.70;;
43297;SDS011;28892;55.640;37.532;2023-05-07T10:17:24;3.65;;;2.20;;
43297;SDS011;28892;55.640;37.532;2023-05-07T10:20:00;3.75;;;2.35;;
43297;SDS011;28892;55.640;37.532;2023-05-07T10:26:07;4.35;;;2.20;;
43297;SDS011;28892;55.640;37.532;2023-05-07T10:32:12;4.55;;;2.35;;
43297;SDS011;28892;55.640;37.532;2023-05-07T10:37:57;4.88;;;2.63;;
43297;SDS011;28892;55.640;37.532;2023-05-07T10:40:57;3.72;;;1.73;;
43297;SDS011;28892;55.640;37.532;2023-05-07T10:44:08;1.85;;;1.70;;
43297;SDS011;28892;55.640;37.532;2023-05-07T10:47:09;6.20;;;1.70;;
43297;SDS011;28892;55.640;37.532;2023-05-07T10:52:34;2.17;;;1.45;;
43297;SDS011;28892;55.640;37.532;2023-05-07T10:55:21;2.13;;;1.90;;
43297;SDS011;28892;55.640;37.532;2023-05-07T10:58:40;1.92;;;1.77;;
43297;SDS011;28892;55.640;37.532;2023-05-07T11:04:42;4.63;;;2.40;;
43297;SDS011;28892;55.640;37.532;2023-05-07T11:14:02;2.17;;;1.60;;
43297;SDS011;28892;55.640;37.532;2023-05-07T11:16:41;1.67;;;1.58;;
43297;SDS011;28892;55.640;37.532;2023-05-07T11:30:33;2.92;;;1.60;;
43297;SDS011;28892;55.640;37.532;2023-05-07T11:33:03;2.97;;;1.50;;
43297;SDS011;28892;55.640;37.532;2023-05-07T11:35:33;4.95;;;1.80;;
43297;SDS011;28892;55.640;37.532;2023-05-07T11:38:02;3.78;;;2.00;;
43297;SDS011;28892;55.640;37.532;2023-05-07T11:40:56;2.70;;;1.80;;
43297;SDS011;28892;55.640;37.532;2023-05-07T11:43:33;4.45;;;2.65;;
43297;SDS011;28892;55.640;37.532;2023-05-07T11:46:08;3.60;;;2.70;;
43297;SDS011;28892;55.640;37.532;2023-05-07T12:25:32;5.45;;;2.10;;
43297;SDS011;28892;55.640;37.532;2023-05-07T12:28:00;4.43;;;1.80;;
43297;SDS011;28892;55.640;37.532;2023-05-07T12:33:31;5.68;;;1.95;;
43297;SDS011;28892;55.640;37.532;2023-05-07T12:36:02;3.80;;;2.00;;
43297;SDS011;28892;55.640;37.532;2023-05-07T12:39:11;4.18;;;2.03;;
43297;SDS011;28892;55.640;37.532;2023-05-07T12:41:55;3.80;;;2.08;;
43297;SDS011;28892;55.640;37.532;2023-05-07T12:44:30;2.50;;;1.98;;
43297;SDS011;28892;55.640;37.532;2023-05-07T12:46:58;4.82;;;2.17;;
43297;SDS011;28892;55.640;37.532;2023-05-07T12:49:29;2.50;;;2.10;;
43297;SDS011;28892;55.640;37.532;2023-05-07T12:52:23;3.83;;;2.22;;
43297;SDS011;28892;55.640;37.532;2023-05-07T12:54:52;3.67;;;2.17;;
43297;SDS011;28892;55.640;37.532;2023-05-07T12:57:18;6.93;;;2.50;;
43297;SDS011;28892;55.640;37.532;2023-05-07T12:59:57;2.47;;;1.70;;
43297;SDS011;28892;55.640;37.532;2023-05-07T13:02:31;2.97;;;2.10;;
43297;SDS011;28892;55.640;37.532;2023-05-07T13:05:14;3.78;;;2.20;;
43297;SDS011;28892;55.640;37.532;2023-05-07T13:07:40;4.88;;;1.92;;
43297;SDS011;28892;55.640;37.532;2023-05-07T13:10:17;4.38;;;2.20;;
43297;SDS011;28892;55.640;37.532;2023-05-07T13:12:46;4.65;;;2.25;;
43297;SDS011;28892;55.640;37.532;2023-05-07T13:15:20;5.00;;;2.63;;
43297;SDS011;28892;55.640;37.532;2023-05-07T13:22:28;2.50;;;2.28;;
43297;SDS011;28892;55.640;37.532;2023-05-07T13:24:57;7.30;;;3.13;;
43297;SDS011;28892;55.640;37.532;2023-05-07T13:27:24;4.72;;;3.70;;
43297;SDS011;28892;55.640;37.532;2023-05-07T13:34:35;3.88;;;2.40;;
43297;SDS011;28892;55.640;37.532;2023-05-07T13:38:12;5.32;;;2.28;;
43297;SDS011;28892;55.640;37.532;2023-05-07T13:40:49;2.95;;;2.50;;
43297;SDS011;28892;55.640;37.532;2023-05-07T13:43:24;2.65;;;2.35;;
43297;SDS011;28892;55.640;37.532;2023-05-07T13:46:02;5.38;;;3.72;;
43297;SDS011;28892;55.640;37.532;2023-05-07T13:48:37;5.90;;;2.90;;
43297;SDS011;28892;55.640;37.532;2023-05-07T13:51:09;3.90;;;2.28;;
43297;SDS011;28892;55.640;37.532;2023-05-07T14:04:23;5.05;;;1.98;;
43297;SDS011;28892;55.640;37.532;2023-05-07T14:06:55;2.25;;;1.65;;
43297;SDS011;28892;55.640;37.532;2023-05-07T14:09:26;5.20;;;1.83;;
43297;SDS011;28892;55.640;37.532;2023-05-07T14:11:59;2.78;;;1.70;;
43297;SDS011;28892;55.640;37.532;2023-05-07T14:14:36;3.28;;;2.05;;
43297;SDS011;28892;55.640;37.532;2023-05-07T14:17:17;4.85;;;2.17;;
43297;SDS011;28892;55.640;37.532;2023-05-07T14:23:39;8.10;;;3.58;;
43297;SDS011;28892;55.640;37.532;2023-05-07T14:26:25;8.10;;;4.47;;
43297;SDS011;28892;55.640;37.532;2023-05-07T14:33:54;3.08;;;2.50;;
43297;SDS011;28892;55.640;37.532;2023-05-07T14:41:10;3.08;;;2.03;;
43297;SDS011;28892;55.640;37.532;2023-05-07T14:45:32;5.13;;;1.92;;
43297;SDS011;28892;55.640;37.532;2023-05-07T14:49:29;4.80;;;2.88;;
43297;SDS011;28892;55.640;37.532;2023-05-07T14:56:08;4.35;;;2.72;;
43297;SDS011;28892;55.640;37.532;2023-05-07T15:11:03;3.85;;;1.70;;
43297;SDS011;28892;55.640;37.532;2023-05-07T15:16:31;12.10;;;7.10;;
43297;SDS011;28892;55.640;37.532;2023-05-07T15:18:58;5.63;;;3.03;;
43297;SDS011;28892;55.640;37.532;2023-05-07T15:21:24;6.35;;;2.60;;
43297;SDS011;28892;55.640;37.532;2023-05-07T15:23:55;2.97;;;1.90;;
43297;SDS011;28892;55.640;37.532;2023-05-07T15:26:21;2.60;;;1.65;;
43297;SDS011;28892;55.640;37.532;2023-05-07T15:28:48;3.10;;;1.80;;
43297;SDS011;28892;55.640;37.532;2023-05-07T15:31:17;2.45;;;2.00;;
43297;SDS011;28892;55.640;37.532;2023-05-07T15:37:02;3.85;;;2.50;;
43297;SDS011;28892;55.640;37.532;2023-05-07T15:39:37;5.75;;;2.45;;
43297;SDS011;28892;55.640;37.532;2023-05-07T15:42:23;3.67;;;2.05;;
43297;SDS011;28892;55.640;37.532;2023-05-07T15:44:50;2.28;;;1.70;;
43297;SDS011;28892;55.640;37.532;2023-05-07T15:47:19;3.90;;;2.35;;
43297;SDS011;28892;55.640;37.532;2023-05-07T15:49:47;3.28;;;2.00;;
43297;SDS011;28892;55.640;37.532;2023-05-07T15:52:13;5.45;;;2.58;;
43297;SDS011;28892;55.640;37.532;2023-05-07T15:54:40;5.18;;;2.45;;
43297;SDS011;28892;55.640;37.532;2023-05-07T15:57:06;4.53;;;2.17;;
43297;SDS011;28892;55.640;37.532;2023-05-07T15:59:33;3.85;;;1.90;;
43297;SDS011;28892;55.640;37.532;2023-05-07T16:02:03;7.38;;;2.17;;
43297;SDS011;28892;55.640;37.532;2023-05-07T16:08:52;4.72;;;2.40;;
43297;SDS011;28892;55.640;37.532;2023-05-07T16:14:13;4.10;;;2.28;;
43297;SDS011;28892;55.640;37.532;2023-05-07T16:16:45;3.90;;;2.20;;
43297;SDS011;28892;55.640;37.532;2023-05-07T16:27:31;2.75;;;2.47;;
43297;SDS011;28892;55.640;37.532;2023-05-07T16:30:00;4.47;;;2.20;;
43297;SDS011;28892;55.640;37.532;2023-05-07T16:32:35;6.57;;;2.10;;
43297;SDS011;28892;55.640;37.532;2023-05-07T16:35:04;4.15;;;2.15;;
43297;SDS011;28892;55.640;37.532;2023-05-07T16:37:33;3.17;;;2.03;;
43297;SDS011;28892;55.640;37.532;2023-05-07T16:43:28;3.03;;;2.38;;
43297;SDS011;28892;55.640;37.532;2023-05-07T16:46:46;3.97;;;2.00;;
43297;SDS011;28892;55.640;37.532;2023-05-07T16:49:13;3.50;;;2.00;;
43297;SDS011;28892;55.640;37.532;2023-05-07T16:51:42;3.65;;;2.15;;
43297;SDS011;28892;55.640;37.532;2023-05-07T16:54:11;6.32;;;2.13;;
43297;SDS011;28892;55.640;37.532;2023-05-07T16:56:37;4.20;;;1.95;;
43297;SDS011;28892;55.640;37.532;2023-05-07T17:28:20;6.00;;;2.60;;
43297;SDS011;28892;55.640;37.532;2023-05-07T17:30:56;4.93;;;2.35;;
43297;SDS011;28892;55.640;37.532;2023-05-07T17:33:22;4.25;;;2.40;;
43297;SDS011;28892;55.640;37.532;2023-05-07T17:35:55;4.65;;;2.53;;
43297;SDS011;28892;55.640;37.532;2023-05-07T17:38:25;6.88;;;4.00;;
43297;SDS011;28892;55.640;37.532;2023-05-07T17:40:57;3.88;;;2.88;;
43297;SDS011;28892;55.640;37.532;2023-05-07T17:43:24;5.03;;;2.85;;
43297;SDS011;28892;55.640;37.532;2023-05-07T17:45:51;6.15;;;2.72;;
43297;SDS011;28892;55.640;37.532;2023-05-07T17:48:27;4.65;;;2.50;;
43297;SDS011;28892;55.640;37.532;2023-05-07T17:50:59;4.85;;;2.40;;
43297;SDS011;28892;55.640;37.532;2023-05-07T17:53:32;6.47;;;2.90;;
43297;SDS011;28892;55.640;37.532;2023-05-07T17:56:00;8.48;;;3.28;;
43297;SDS011;28892;55.640;37.532;2023-05-07T17:58:26;6.18;;;3.25;;
43297;SDS011;28892;55.640;37.532;2023-05-07T18:01:14;5.20;;;2.58;;
43297;SDS011;28892;55.640;37.532;2023-05-07T18:03:46;6.65;;;3.10;;
43297;SDS011;28892;55.640;37.532;2023-05-07T18:06:33;3.67;;;2.53;;
43297;SDS011;28892;55.640;37.532;2023-05-07T18:08:59;4.18;;;2.58;;
43297;SDS011;28892;55.640;37.532;2023-05-07T18:11:36;8.10;;;2.88;;
43297;SDS011;28892;55.640;37.532;2023-05-07T18:17:06;5.18;;;2.88;;
43297;SDS011;28892;55.640;37.532;2023-05-07T18:19:36;6.65;;;2.80;;
43297;SDS011;28892;55.640;37.532;2023-05-07T18:22:02;8.48;;;2.90;;
43297;SDS011;28892;55.640;37.532;2023-05-07T18:24:45;8.73;;;3.05;;
43297;SDS011;28892;55.640;37.532;2023-05-07T18:27:32;6.38;;;3.00;;
43297;SDS011;28892;55.640;37.532;2023-05-07T18:30:01;8.20;;;3.03;;
43297;SDS011;28892;55.640;37.532;2023-05-07T18:32:32;5.20;;;3.30;;
43297;SDS011;28892;55.640;37.532;2023-05-07T18:35:16;5.90;;;3.63;;
43297;SDS011;28892;55.640;37.532;2023-05-07T18:38:06;7.88;;;3.60;;
43297;SDS011;28892;55.640;37.532;2023-05-07T18:49:27;7.75;;;3.47;;
43297;SDS011;28892;55.640;37.532;2023-05-07T18:55:37;7.32;;;3.70;;
43297;SDS011;28892;55.640;37.532;2023-05-07T18:58:06;8.02;;;3.95;;